createdAt,value
2019-02-24T00:00:44.122Z,981.16
2019-02-24T00:01:44.069Z,981.18
2019-02-24T00:02:44.177Z,981.15
2019-02-24T00:03:43.958Z,981.14
2019-02-24T00:04:43.903Z,981.17
2019-02-24T00:05:43.867Z,981.19
2019-02-24T00:06:43.794Z,981.19
2019-02-24T00:07:43.737Z,981.16
2019-02-24T00:08:43.684Z,981.13
2019-02-24T00:09:43.630Z,981.16
2019-02-24T00:10:43.574Z,981.13
2019-02-24T00:11:43.684Z,981.14
2019-02-24T00:12:43.464Z,981.12
2019-02-24T00:13:43.409Z,981.15
2019-02-24T00:14:43.353Z,981.15
2019-02-24T00:15:43.304Z,981.16
2019-02-24T00:16:43.244Z,981.14
2019-02-24T00:17:43.189Z,981.14
2019-02-24T00:18:43.136Z,981.05
2019-02-24T00:19:43.195Z,981.03
2019-02-24T00:20:43.024Z,981.04
2019-02-24T00:21:42.970Z,981.00
2019-02-24T00:22:42.916Z,980.96
2019-02-24T00:23:42.859Z,980.95
2019-02-24T00:24:42.903Z,980.90
2019-02-24T00:25:42.769Z,980.89
2019-02-24T00:26:43.303Z,980.87
2019-02-24T00:27:42.641Z,980.91
2019-02-24T00:28:42.596Z,980.88
2019-02-24T00:29:42.631Z,980.87
2019-02-24T00:30:42.476Z,980.83
2019-02-24T00:31:42.594Z,980.85
2019-02-24T00:32:42.366Z,980.81
2019-02-24T00:33:42.311Z,980.82
2019-02-24T00:34:42.262Z,980.79
2019-02-24T00:35:42.202Z,980.78
2019-02-24T00:36:42.164Z,980.79
2019-02-24T00:37:42.092Z,980.72
2019-02-24T00:38:42.062Z,980.73
2019-02-24T00:39:41.984Z,980.69
2019-02-24T00:40:41.927Z,980.71
2019-02-24T00:41:41.871Z,980.75
2019-02-24T00:42:41.817Z,980.75
2019-02-24T00:43:41.760Z,980.72
2019-02-24T00:44:41.705Z,980.76
2019-02-24T00:45:41.903Z,980.78
2019-02-24T00:46:41.597Z,980.79
2019-02-24T00:47:41.542Z,980.78
2019-02-24T00:48:41.487Z,980.82
2019-02-24T00:49:41.432Z,980.81
2019-02-24T00:50:41.406Z,980.80
2019-02-24T00:51:41.321Z,980.83
2019-02-24T00:52:41.470Z,980.80
2019-02-24T00:53:41.214Z,980.80
2019-02-24T00:54:41.304Z,980.75
2019-02-24T00:55:41.103Z,980.72
2019-02-24T00:56:41.047Z,980.75
2019-02-24T00:57:40.992Z,980.71
2019-02-24T00:58:40.936Z,980.74
2019-02-24T00:59:40.912Z,980.75
2019-02-24T01:00:40.826Z,980.71
2019-02-24T01:01:41.012Z,980.74
2019-02-24T01:02:40.718Z,980.73
2019-02-24T01:03:40.661Z,980.76
2019-02-24T01:04:40.605Z,980.74
2019-02-24T01:05:40.550Z,980.77
2019-02-24T01:06:40.712Z,980.74
2019-02-24T01:07:40.440Z,980.77
2019-02-24T01:08:40.389Z,980.74
2019-02-24T01:09:40.326Z,980.70
2019-02-24T01:10:40.275Z,980.73
2019-02-24T01:11:40.250Z,980.70
2019-02-24T01:12:40.164Z,980.70
2019-02-24T01:13:40.109Z,980.67
2019-02-24T01:14:40.055Z,980.70
2019-02-24T01:15:39.998Z,980.65
2019-02-24T01:16:39.944Z,980.63
2019-02-24T01:17:40.130Z,980.66
2019-02-24T01:18:39.864Z,980.64
2019-02-24T01:19:39.784Z,980.65
2019-02-24T01:20:39.724Z,980.65
2019-02-24T01:21:39.670Z,980.59
2019-02-24T01:22:39.642Z,980.61
2019-02-24T01:23:39.560Z,980.63
2019-02-24T01:24:39.728Z,980.56
2019-02-24T01:25:39.447Z,980.55
2019-02-24T01:26:39.394Z,980.48
2019-02-24T01:27:39.336Z,980.54
2019-02-24T01:28:39.284Z,980.54
2019-02-24T01:29:39.232Z,980.52
2019-02-24T01:30:39.169Z,980.56
2019-02-24T01:31:39.111Z,980.52
2019-02-24T01:32:39.059Z,980.57
2019-02-24T01:33:39.009Z,980.46
2019-02-24T01:34:38.948Z,980.49
2019-02-24T01:35:38.892Z,980.44
2019-02-24T01:36:38.855Z,980.47
2019-02-24T01:37:38.784Z,980.45
2019-02-24T01:38:38.747Z,980.43
2019-02-24T01:39:38.673Z,980.41
2019-02-24T01:40:38.839Z,980.36
2019-02-24T01:41:38.562Z,980.41
2019-02-24T01:42:38.505Z,980.40
2019-02-24T01:43:38.452Z,980.43
2019-02-24T01:44:38.397Z,980.39
2019-02-24T01:45:38.358Z,980.41
2019-02-24T01:46:38.286Z,980.37
2019-02-24T01:47:38.229Z,980.33
2019-02-24T01:48:38.175Z,980.33
2019-02-24T01:49:38.345Z,980.36
2019-02-24T01:50:38.065Z,980.33
2019-02-24T01:51:38.009Z,980.31
2019-02-24T01:52:37.960Z,980.35
2019-02-24T01:53:37.901Z,980.32
2019-02-24T01:54:37.853Z,980.34
2019-02-24T01:55:37.792Z,980.32
2019-02-24T01:56:37.945Z,980.29
2019-02-24T01:57:37.682Z,980.33
2019-02-24T01:58:37.624Z,980.31
2019-02-24T01:59:37.567Z,980.29
2019-02-24T02:00:37.512Z,980.34
2019-02-24T02:01:37.456Z,980.34
2019-02-24T02:02:37.403Z,980.35
2019-02-24T02:03:37.346Z,980.37
2019-02-24T02:04:37.289Z,980.42
2019-02-24T02:05:37.236Z,980.38
2019-02-24T02:06:37.184Z,980.37
2019-02-24T02:07:37.143Z,980.32
2019-02-24T02:08:37.070Z,980.28
2019-02-24T02:09:37.251Z,980.26
2019-02-24T02:10:36.960Z,980.30
2019-02-24T02:11:36.902Z,980.27
2019-02-24T02:12:36.875Z,980.28
2019-02-24T02:13:36.793Z,980.27
2019-02-24T02:14:36.738Z,980.29
2019-02-24T02:15:36.684Z,980.26
2019-02-24T02:16:36.625Z,980.22
2019-02-24T02:17:36.577Z,980.24
2019-02-24T02:18:36.516Z,980.19
2019-02-24T02:19:36.459Z,980.19
2019-02-24T02:20:36.565Z,980.20
2019-02-24T02:21:36.348Z,980.18
2019-02-24T02:22:36.295Z,980.17
2019-02-24T02:23:36.240Z,980.16
2019-02-24T02:24:36.183Z,980.19
2019-02-24T02:25:36.128Z,980.19
2019-02-24T02:26:36.072Z,980.18
2019-02-24T02:27:36.258Z,980.18
2019-02-24T02:28:43.789Z,980.18
2019-02-24T02:29:35.908Z,980.19
2019-02-24T02:30:35.861Z,980.19
2019-02-24T02:31:35.798Z,980.18
2019-02-24T02:32:35.740Z,980.20
2019-02-24T02:33:35.686Z,980.19
2019-02-24T02:34:35.631Z,980.21
2019-02-24T02:35:35.580Z,980.17
2019-02-24T02:36:35.522Z,980.19
2019-02-24T02:37:35.469Z,980.18
2019-02-24T02:38:35.431Z,980.16
2019-02-24T02:39:35.363Z,980.16
2019-02-24T02:40:35.301Z,980.17
2019-02-24T02:41:35.245Z,980.17
2019-02-24T02:42:35.193Z,980.22
2019-02-24T02:43:35.141Z,980.20
2019-02-24T02:44:35.080Z,980.18
2019-02-24T02:45:35.024Z,980.17
2019-02-24T02:46:35.026Z,980.19
2019-02-24T02:47:34.913Z,980.16
2019-02-24T02:48:34.856Z,980.14
2019-02-24T02:49:34.803Z,980.18
2019-02-24T02:50:34.752Z,980.12
2019-02-24T02:51:34.690Z,980.12
2019-02-24T02:52:34.635Z,980.07
2019-02-24T02:53:34.580Z,980.06
2019-02-24T02:54:34.525Z,980.06
2019-02-24T02:55:34.468Z,980.09
2019-02-24T02:56:34.418Z,980.08
2019-02-24T02:57:34.356Z,980.10
2019-02-24T02:58:34.301Z,980.04
2019-02-24T02:59:34.246Z,980.05
2019-02-24T03:00:34.192Z,980.09
2019-02-24T03:01:34.136Z,980.05
2019-02-24T03:02:34.081Z,980.03
2019-02-24T03:03:34.044Z,979.98
2019-02-24T03:04:33.969Z,979.99
2019-02-24T03:05:34.088Z,979.95
2019-02-24T03:06:33.860Z,979.95
2019-02-24T03:07:33.801Z,979.97
2019-02-24T03:08:33.790Z,979.97
2019-02-24T03:09:33.692Z,979.98
2019-02-24T03:10:33.636Z,979.96
2019-02-24T03:11:33.581Z,979.98
2019-02-24T03:12:33.526Z,979.98
2019-02-24T03:13:33.477Z,980.00
2019-02-24T03:14:33.454Z,980.00
2019-02-24T03:15:33.358Z,979.98
2019-02-24T03:16:33.503Z,979.95
2019-02-24T03:17:33.248Z,979.97
2019-02-24T03:18:33.196Z,980.02
2019-02-24T03:19:33.231Z,980.02
2019-02-24T03:20:33.081Z,980.03
2019-02-24T03:21:33.027Z,980.03
2019-02-24T03:22:32.974Z,980.04
2019-02-24T03:23:32.917Z,980.08
2019-02-24T03:24:32.859Z,980.02
2019-02-24T03:25:32.805Z,980.05
2019-02-24T03:26:32.750Z,980.02
2019-02-24T03:27:32.695Z,980.07
2019-02-24T03:28:32.638Z,980.06
2019-02-24T03:29:32.796Z,980.06
2019-02-24T03:30:32.536Z,980.04
2019-02-24T03:31:32.472Z,980.03
2019-02-24T03:32:32.451Z,980.06
2019-02-24T03:33:32.363Z,979.99
2019-02-24T03:34:32.305Z,980.01
2019-02-24T03:35:32.248Z,980.03
2019-02-24T03:36:32.194Z,979.96
2019-02-24T03:37:32.141Z,979.96
2019-02-24T03:38:32.312Z,979.95
2019-02-24T03:39:32.036Z,980.01
2019-02-24T03:40:31.974Z,979.97
2019-02-24T03:41:31.952Z,980.00
2019-02-24T03:42:31.862Z,980.02
2019-02-24T03:43:31.807Z,980.04
2019-02-24T03:44:31.753Z,980.00
2019-02-24T03:45:31.919Z,980.02
2019-02-24T03:46:31.667Z,980.07
2019-02-24T03:47:31.584Z,980.05
2019-02-24T03:48:31.531Z,980.08
2019-02-24T03:49:31.476Z,980.07
2019-02-24T03:50:31.420Z,980.05
2019-02-24T03:51:31.363Z,980.04
2019-02-24T03:52:31.324Z,980.01
2019-02-24T03:53:31.252Z,980.08
2019-02-24T03:54:31.420Z,980.04
2019-02-24T03:55:31.142Z,980.06
2019-02-24T03:56:31.085Z,980.07
2019-02-24T03:57:31.042Z,980.11
2019-02-24T03:58:30.974Z,980.10
2019-02-24T03:59:30.921Z,980.07
2019-02-24T04:00:30.865Z,980.08
2019-02-24T04:01:30.812Z,980.09
2019-02-24T04:02:30.756Z,980.11
2019-02-24T04:03:30.921Z,980.09
2019-02-24T04:04:30.645Z,980.10
2019-02-24T04:05:30.589Z,980.05
2019-02-24T04:06:30.578Z,980.08
2019-02-24T04:07:30.475Z,980.07
2019-02-24T04:08:30.421Z,980.06
2019-02-24T04:09:30.367Z,980.12
2019-02-24T04:10:30.309Z,980.13
2019-02-24T04:11:30.253Z,980.07
2019-02-24T04:12:30.198Z,980.11
2019-02-24T04:13:30.150Z,980.12
2019-02-24T04:14:30.093Z,980.13
2019-02-24T04:15:30.033Z,980.10
2019-02-24T04:16:30.140Z,980.14
2019-02-24T04:17:29.922Z,980.12
2019-02-24T04:18:29.868Z,980.14
2019-02-24T04:19:29.846Z,980.06
2019-02-24T04:20:29.757Z,980.07
2019-02-24T04:21:29.703Z,980.04
2019-02-24T04:22:29.646Z,980.05
2019-02-24T04:23:29.591Z,980.05
2019-02-24T04:24:29.534Z,980.08
2019-02-24T04:25:29.637Z,980.08
2019-02-24T04:26:29.423Z,980.12
2019-02-24T04:27:29.365Z,980.14
2019-02-24T04:28:29.313Z,980.16
2019-02-24T04:29:29.254Z,980.11
2019-02-24T04:30:29.200Z,980.13
2019-02-24T04:31:29.146Z,980.14
2019-02-24T04:32:29.120Z,980.12
2019-02-24T04:33:29.033Z,980.14
2019-02-24T04:34:29.152Z,980.19
2019-02-24T04:35:28.924Z,980.19
2019-02-24T04:36:28.866Z,980.22
2019-02-24T04:37:28.843Z,980.23
2019-02-24T04:38:28.757Z,980.24
2019-02-24T04:39:28.708Z,980.23
2019-02-24T04:40:28.645Z,980.19
2019-02-24T04:41:28.589Z,980.22
2019-02-24T04:42:28.534Z,980.21
2019-02-24T04:43:28.481Z,980.22
2019-02-24T04:44:28.423Z,980.20
2019-02-24T04:45:28.367Z,980.21
2019-02-24T04:46:28.313Z,980.23
2019-02-24T04:47:28.455Z,980.16
2019-02-24T04:48:28.203Z,980.18
2019-02-24T04:49:28.145Z,980.22
2019-02-24T04:50:28.113Z,980.21
2019-02-24T04:51:28.034Z,980.23
2019-02-24T04:52:27.983Z,980.19
2019-02-24T04:53:27.923Z,980.19
2019-02-24T04:54:27.868Z,980.21
2019-02-24T04:55:27.813Z,980.20
2019-02-24T04:56:27.751Z,980.18
2019-02-24T04:57:27.702Z,980.23
2019-02-24T04:58:27.862Z,980.19
2019-02-24T04:59:34.793Z,980.23
2019-02-24T05:00:27.535Z,980.22
2019-02-24T05:01:27.482Z,980.15
2019-02-24T05:02:27.424Z,980.14
2019-02-24T05:03:27.368Z,980.14
2019-02-24T05:04:27.312Z,980.18
2019-02-24T05:05:27.269Z,980.17
2019-02-24T05:06:27.202Z,980.15
2019-02-24T05:07:27.166Z,980.15
2019-02-24T05:08:27.089Z,980.18
2019-02-24T05:09:27.276Z,980.16
2019-02-24T05:10:26.979Z,980.16
2019-02-24T05:11:26.924Z,980.22
2019-02-24T05:12:26.927Z,980.17
2019-02-24T05:13:26.814Z,980.22
2019-02-24T05:14:26.754Z,980.24
2019-02-24T05:15:26.721Z,980.21
2019-02-24T05:16:26.676Z,980.22
2019-02-24T05:17:26.591Z,980.18
2019-02-24T05:18:26.782Z,980.17
2019-02-24T05:19:26.481Z,980.14
2019-02-24T05:20:26.420Z,980.21
2019-02-24T05:21:26.368Z,980.20
2019-02-24T05:22:26.308Z,980.19
2019-02-24T05:23:26.255Z,980.22
2019-02-24T05:24:26.201Z,980.19
2019-02-24T05:25:26.141Z,980.18
2019-02-24T05:26:26.087Z,980.15
2019-02-24T05:27:26.189Z,980.20
2019-02-24T05:28:25.976Z,980.21
2019-02-24T05:29:25.921Z,980.20
2019-02-24T05:30:25.921Z,980.19
2019-02-24T05:31:25.811Z,980.17
2019-02-24T05:32:25.751Z,980.22
2019-02-24T05:33:25.698Z,980.23
2019-02-24T05:34:25.643Z,980.26
2019-02-24T05:35:25.591Z,980.23
2019-02-24T05:36:25.677Z,980.21
2019-02-24T05:37:25.478Z,980.26
2019-02-24T05:38:25.426Z,980.24
2019-02-24T05:39:25.381Z,980.24
2019-02-24T05:40:25.306Z,980.26
2019-02-24T05:41:25.250Z,980.24
2019-02-24T05:42:25.197Z,980.22
2019-02-24T05:43:25.139Z,980.23
2019-02-24T05:44:25.082Z,980.25
2019-02-24T05:45:25.179Z,980.23
2019-02-24T05:46:24.973Z,980.24
2019-02-24T05:47:24.915Z,980.27
2019-02-24T05:48:24.872Z,980.29
2019-02-24T05:49:24.808Z,980.27
2019-02-24T05:50:24.748Z,980.27
2019-02-24T05:51:24.694Z,980.28
2019-02-24T05:52:24.647Z,980.25
2019-02-24T05:53:24.589Z,980.30
2019-02-24T05:54:24.694Z,980.34
2019-02-24T05:55:24.469Z,980.33
2019-02-24T05:56:24.418Z,980.37
2019-02-24T05:57:24.357Z,980.40
2019-02-24T05:58:24.302Z,980.39
2019-02-24T05:59:24.246Z,980.48
2019-02-24T06:00:24.190Z,980.44
2019-02-24T06:01:24.135Z,980.41
2019-02-24T06:02:24.079Z,980.45
2019-02-24T06:03:24.213Z,980.49
2019-02-24T06:04:23.969Z,980.53
2019-02-24T06:05:23.912Z,980.53
2019-02-24T06:06:23.911Z,980.58
2019-02-24T06:07:23.806Z,980.64
2019-02-24T06:08:23.746Z,980.69
2019-02-24T06:09:23.689Z,980.65
2019-02-24T06:10:23.634Z,980.67
2019-02-24T06:11:23.581Z,980.69
2019-02-24T06:12:23.521Z,980.71
2019-02-24T06:13:23.466Z,980.76
2019-02-24T06:14:23.619Z,980.71
2019-02-24T06:15:23.355Z,980.75
2019-02-24T06:16:23.297Z,980.75
2019-02-24T06:17:23.252Z,980.75
2019-02-24T06:18:23.188Z,980.77
2019-02-24T06:19:23.132Z,980.77
2019-02-24T06:20:23.076Z,980.81
2019-02-24T06:21:23.019Z,980.79
2019-02-24T06:22:22.964Z,980.81
2019-02-24T06:23:23.122Z,980.82
2019-02-24T06:24:22.854Z,980.84
2019-02-24T06:25:22.809Z,980.85
2019-02-24T06:26:22.743Z,980.83
2019-02-24T06:27:22.684Z,980.81
2019-02-24T06:28:22.630Z,980.79
2019-02-24T06:29:22.574Z,980.83
2019-02-24T06:30:22.517Z,980.82
2019-02-24T06:31:22.471Z,980.84
2019-02-24T06:32:22.405Z,980.85
2019-02-24T06:33:22.351Z,980.85
2019-02-24T06:34:22.524Z,980.86
2019-02-24T06:35:22.238Z,980.86
2019-02-24T06:36:22.185Z,980.88
2019-02-24T06:37:22.177Z,980.95
2019-02-24T06:38:22.072Z,981.01
2019-02-24T06:39:22.018Z,980.93
2019-02-24T06:40:21.962Z,980.98
2019-02-24T06:41:21.904Z,980.98
2019-02-24T06:42:21.851Z,980.95
2019-02-24T06:43:21.795Z,980.97
2019-02-24T06:44:21.738Z,981.00
2019-02-24T06:45:21.841Z,981.00
2019-02-24T06:46:21.627Z,981.02
2019-02-24T06:47:21.571Z,981.05
2019-02-24T06:48:21.525Z,981.10
2019-02-24T06:49:21.462Z,981.12
2019-02-24T06:50:21.403Z,981.10
2019-02-24T06:51:21.349Z,981.14
2019-02-24T06:52:21.289Z,981.13
2019-02-24T06:53:21.236Z,981.16
2019-02-24T06:54:21.333Z,981.16
2019-02-24T06:55:21.127Z,981.18
2019-02-24T06:56:21.071Z,981.15
2019-02-24T06:57:21.082Z,981.19
2019-02-24T06:58:20.960Z,981.19
2019-02-24T06:59:20.905Z,981.23
2019-02-24T07:00:20.847Z,981.20
2019-02-24T07:01:20.793Z,981.16
2019-02-24T07:02:20.741Z,981.15
2019-02-24T07:03:20.683Z,981.16
2019-02-24T07:04:20.629Z,981.20
2019-02-24T07:05:20.741Z,981.24
2019-02-24T07:06:20.520Z,981.24
2019-02-24T07:07:20.462Z,981.23
2019-02-24T07:08:20.405Z,981.26
2019-02-24T07:09:20.354Z,981.31
2019-02-24T07:10:20.296Z,981.34
2019-02-24T07:11:20.240Z,981.36
2019-02-24T07:12:20.186Z,981.37
2019-02-24T07:13:20.130Z,981.42
2019-02-24T07:14:20.075Z,981.38
2019-02-24T07:15:20.020Z,981.39
2019-02-24T07:16:20.179Z,981.40
2019-02-24T07:17:19.911Z,981.41
2019-02-24T07:18:19.855Z,981.46
2019-02-24T07:19:19.900Z,981.47
2019-02-24T07:20:19.746Z,981.50
2019-02-24T07:21:19.694Z,981.42
2019-02-24T07:22:19.638Z,981.51
2019-02-24T07:23:19.583Z,981.56
2019-02-24T07:24:19.535Z,981.59
2019-02-24T07:25:19.659Z,981.58
2019-02-24T07:26:19.417Z,981.58
2019-02-24T07:27:19.365Z,981.57
2019-02-24T07:28:19.310Z,981.57
2019-02-24T07:29:19.256Z,981.64
2019-02-24T07:30:23.501Z,981.69
2019-02-24T07:31:19.148Z,981.66
2019-02-24T07:32:19.093Z,981.70
2019-02-24T07:33:19.039Z,981.71
2019-02-24T07:34:18.985Z,981.73
2019-02-24T07:35:18.929Z,981.78
2019-02-24T07:36:19.059Z,981.79
2019-02-24T07:37:18.821Z,981.80
2019-02-24T07:38:18.768Z,981.78
2019-02-24T07:39:18.806Z,981.80
2019-02-24T07:40:18.660Z,981.83
2019-02-24T07:41:18.606Z,981.83
2019-02-24T07:42:18.552Z,981.84
2019-02-24T07:43:18.498Z,981.83
2019-02-24T07:44:18.446Z,981.86
2019-02-24T07:45:18.568Z,981.89
2019-02-24T07:46:18.337Z,981.85
2019-02-24T07:47:18.281Z,981.86
2019-02-24T07:48:18.236Z,981.89
2019-02-24T07:49:18.173Z,981.88
2019-02-24T07:50:18.119Z,981.89
2019-02-24T07:51:18.067Z,981.88
2019-02-24T07:52:18.011Z,981.84
2019-02-24T07:53:17.963Z,981.84
2019-02-24T07:54:18.078Z,981.82
2019-02-24T07:55:17.851Z,981.77
2019-02-24T07:56:17.800Z,981.86
2019-02-24T07:57:17.799Z,981.81
2019-02-24T07:58:17.690Z,981.81
2019-02-24T07:59:17.635Z,981.79
2019-02-24T08:00:17.581Z,981.74
2019-02-24T08:01:17.529Z,981.74
2019-02-24T08:02:17.478Z,981.71
2019-02-24T08:03:17.584Z,981.74
2019-02-24T08:04:17.368Z,981.67
2019-02-24T08:05:17.316Z,981.69
2019-02-24T08:06:17.262Z,981.65
2019-02-24T08:07:17.208Z,981.67
2019-02-24T08:08:17.155Z,981.66
2019-02-24T08:09:17.105Z,981.70
2019-02-24T08:10:17.050Z,981.69
2019-02-24T08:11:16.996Z,981.67
2019-02-24T08:12:16.944Z,981.67
2019-02-24T08:13:16.891Z,981.63
2019-02-24T08:14:16.837Z,981.70
2019-02-24T08:15:16.784Z,981.69
2019-02-24T08:16:16.733Z,981.73
2019-02-24T08:17:16.682Z,981.76
2019-02-24T08:18:16.782Z,981.73
2019-02-24T08:19:16.572Z,981.71
2019-02-24T08:20:16.517Z,981.69
2019-02-24T08:21:16.466Z,981.73
2019-02-24T08:22:16.434Z,981.65
2019-02-24T08:23:16.361Z,981.67
2019-02-24T08:24:16.306Z,981.68
2019-02-24T08:25:16.257Z,981.66
2019-02-24T08:26:16.200Z,981.65
2019-02-24T08:27:16.405Z,981.64
2019-02-24T08:28:16.097Z,981.65
2019-02-24T08:29:16.045Z,981.60
2019-02-24T08:30:16.086Z,981.61
2019-02-24T08:31:15.937Z,981.62
2019-02-24T08:32:15.889Z,981.64
2019-02-24T08:33:15.833Z,981.60
2019-02-24T08:34:15.798Z,981.60
2019-02-24T08:35:15.726Z,981.58
2019-02-24T08:36:15.941Z,981.56
2019-02-24T08:37:15.624Z,981.59
2019-02-24T08:38:15.571Z,981.59
2019-02-24T08:39:15.518Z,981.60
2019-02-24T08:40:15.467Z,981.55
2019-02-24T08:41:15.413Z,981.57
2019-02-24T08:42:15.366Z,981.54
2019-02-24T08:43:15.314Z,981.50
2019-02-24T08:44:15.257Z,981.41
2019-02-24T08:45:15.416Z,981.38
2019-02-24T08:46:15.151Z,981.38
2019-02-24T08:47:15.100Z,981.32
2019-02-24T08:48:15.049Z,981.33
2019-02-24T08:49:14.998Z,981.26
2019-02-24T08:50:14.944Z,981.29
2019-02-24T08:51:14.892Z,981.32
2019-02-24T08:52:14.841Z,981.28
2019-02-24T08:53:14.787Z,981.23
2019-02-24T08:54:14.736Z,981.23
2019-02-24T08:55:14.688Z,981.25
2019-02-24T08:56:14.635Z,981.23
2019-02-24T08:57:14.580Z,981.26
2019-02-24T08:58:14.703Z,981.23
2019-02-24T08:59:14.475Z,981.24
2019-02-24T09:00:14.423Z,981.20
2019-02-24T09:01:14.448Z,981.20
2019-02-24T09:02:14.323Z,981.17
2019-02-24T09:03:14.268Z,981.15
2019-02-24T09:04:14.218Z,981.09
2019-02-24T09:05:14.166Z,981.08
2019-02-24T09:06:14.114Z,981.10
2019-02-24T09:07:14.078Z,981.10
2019-02-24T09:08:14.010Z,981.09
2019-02-24T09:09:14.127Z,981.16
2019-02-24T09:10:13.917Z,981.10
2019-02-24T09:11:13.855Z,981.12
2019-02-24T09:12:14.981Z,981.11
2019-02-24T09:13:13.755Z,981.13
2019-02-24T09:14:13.702Z,981.11
2019-02-24T09:15:13.651Z,981.10
2019-02-24T09:16:13.607Z,981.10
2019-02-24T09:17:13.554Z,981.11
2019-02-24T09:18:13.504Z,981.13
2019-02-24T09:19:13.444Z,981.14
2019-02-24T09:20:13.399Z,981.15
2019-02-24T09:21:13.341Z,981.15
2019-02-24T09:22:13.296Z,981.18
2019-02-24T09:23:13.240Z,981.16
2019-02-24T09:24:13.433Z,981.21
2019-02-24T09:25:13.141Z,981.23
2019-02-24T09:26:13.088Z,981.25
2019-02-24T09:27:13.041Z,981.30
2019-02-24T09:28:12.988Z,981.27
2019-02-24T09:29:12.932Z,981.21
2019-02-24T09:30:12.884Z,981.12
2019-02-24T09:31:12.830Z,981.12
2019-02-24T09:32:12.780Z,981.05
2019-02-24T09:33:12.731Z,981.01
2019-02-24T09:34:12.680Z,981.00
2019-02-24T09:35:12.826Z,980.98
2019-02-24T09:36:12.575Z,980.95
2019-02-24T09:37:12.526Z,980.94
2019-02-24T09:38:12.477Z,980.92
2019-02-24T09:39:12.423Z,980.97
2019-02-24T09:40:12.375Z,980.98
2019-02-24T09:41:12.326Z,980.98
2019-02-24T09:42:12.272Z,980.99
2019-02-24T09:43:12.220Z,981.02
2019-02-24T09:44:12.178Z,981.06
2019-02-24T09:45:12.120Z,981.12
2019-02-24T09:46:12.069Z,981.21
2019-02-24T09:47:12.016Z,981.28
2019-02-24T09:48:12.158Z,981.34
2019-02-24T09:49:11.915Z,981.37
2019-02-24T09:50:11.864Z,981.39
2019-02-24T09:51:11.920Z,981.53
2019-02-24T09:52:11.767Z,981.59
2019-02-24T09:53:11.713Z,981.55
2019-02-24T09:54:11.661Z,981.57
2019-02-24T09:55:11.610Z,981.53
2019-02-24T09:56:11.563Z,981.52
2019-02-24T09:57:11.510Z,981.47
2019-02-24T09:58:11.463Z,981.51
2019-02-24T09:59:11.653Z,981.45
2019-02-24T10:00:11.357Z,981.35
2019-02-24T10:01:11.306Z,981.32
2019-02-24T10:02:11.262Z,981.21
2019-02-24T10:03:11.208Z,981.12
2019-02-24T10:04:11.155Z,981.13
2019-02-24T10:05:11.106Z,981.03
2019-02-24T10:06:11.054Z,981.03
2019-02-24T10:07:11.004Z,981.08
2019-02-24T10:08:11.170Z,981.07
2019-02-24T10:09:10.902Z,981.01
2019-02-24T10:10:10.853Z,981.04
2019-02-24T10:11:10.811Z,981.09
2019-02-24T10:12:10.751Z,981.18
2019-02-24T10:13:10.700Z,981.21
2019-02-24T10:14:10.648Z,981.23
2019-02-24T10:15:10.601Z,981.31
2019-02-24T10:16:10.549Z,981.42
2019-02-24T10:17:10.677Z,981.50
2019-02-24T10:18:10.452Z,981.59
2019-02-24T10:19:10.397Z,981.58
2019-02-24T10:20:10.377Z,981.54
2019-02-24T10:21:10.294Z,981.51
2019-02-24T10:22:10.247Z,981.57
2019-02-24T10:23:10.193Z,981.63
2019-02-24T10:24:10.144Z,981.68
2019-02-24T10:25:10.098Z,981.65
2019-02-24T10:26:10.041Z,981.66
2019-02-24T10:27:09.992Z,981.60
2019-02-24T10:28:10.178Z,981.62
2019-02-24T10:29:09.892Z,981.61
2019-02-24T10:30:09.846Z,981.66
2019-02-24T10:31:09.837Z,981.66
2019-02-24T10:32:09.742Z,981.58
2019-02-24T10:33:09.690Z,981.64
2019-02-24T10:34:09.640Z,981.64
2019-02-24T10:35:09.588Z,981.67
2019-02-24T10:36:09.540Z,981.63
2019-02-24T10:37:09.672Z,981.67
2019-02-24T10:38:09.438Z,981.71
2019-02-24T10:39:09.388Z,981.78
2019-02-24T10:40:09.389Z,981.75
2019-02-24T10:41:09.293Z,981.74
2019-02-24T10:42:09.236Z,981.72
2019-02-24T10:43:09.186Z,981.73
2019-02-24T10:44:09.138Z,981.71
2019-02-24T10:45:09.088Z,981.71
2019-02-24T10:46:09.035Z,981.66
2019-02-24T10:47:08.986Z,981.62
2019-02-24T10:48:14.070Z,981.58
2019-02-24T10:49:08.887Z,981.59
2019-02-24T10:50:08.840Z,981.60
2019-02-24T10:51:08.849Z,981.58
2019-02-24T10:52:08.736Z,981.56
2019-02-24T10:53:08.694Z,981.58
2019-02-24T10:54:08.638Z,981.55
2019-02-24T10:55:08.593Z,981.57
2019-02-24T10:56:08.538Z,981.57
2019-02-24T10:57:12.708Z,981.57
2019-02-24T10:58:08.446Z,981.54
2019-02-24T10:59:08.585Z,981.51
2019-02-24T11:00:08.337Z,981.49
2019-02-24T11:01:08.287Z,981.53
2019-02-24T11:02:08.307Z,981.55
2019-02-24T11:03:08.191Z,981.60
2019-02-24T11:04:08.140Z,981.64
2019-02-24T11:05:08.086Z,981.51
2019-02-24T11:06:08.044Z,981.51
2019-02-24T11:07:07.979Z,981.54
2019-02-24T11:08:08.087Z,981.53
2019-02-24T11:09:07.887Z,981.50
2019-02-24T11:10:07.839Z,981.47
2019-02-24T11:11:07.857Z,981.44
2019-02-24T11:12:08.923Z,981.47
2019-02-24T11:13:07.688Z,981.52
2019-02-24T11:14:07.636Z,981.58
2019-02-24T11:15:07.585Z,981.54
2019-02-24T11:16:07.535Z,981.53
2019-02-24T11:17:07.487Z,981.57
2019-02-24T11:18:07.435Z,981.53
2019-02-24T11:19:07.599Z,981.53
2019-02-24T11:20:07.338Z,981.58
2019-02-24T11:21:07.283Z,981.62
2019-02-24T11:22:07.317Z,981.61
2019-02-24T11:23:07.185Z,981.52
2019-02-24T11:24:07.132Z,981.45
2019-02-24T11:25:07.083Z,981.43
2019-02-24T11:26:07.032Z,981.48
2019-02-24T11:27:06.984Z,981.44
2019-02-24T11:28:06.934Z,981.35
2019-02-24T11:29:06.885Z,981.34
2019-02-24T11:30:07.856Z,981.31
2019-02-24T11:31:06.782Z,981.33
2019-02-24T11:32:06.734Z,981.29
2019-02-24T11:33:06.781Z,981.35
2019-02-24T11:34:06.634Z,981.39
2019-02-24T11:35:06.587Z,981.31
2019-02-24T11:36:06.533Z,981.28
2019-02-24T11:37:06.502Z,981.24
2019-02-24T11:38:06.437Z,981.26
2019-02-24T11:39:06.620Z,981.29
2019-02-24T11:40:06.338Z,981.21
2019-02-24T11:41:06.290Z,981.28
2019-02-24T11:42:06.325Z,981.31
2019-02-24T11:43:06.185Z,981.29
2019-02-24T11:44:06.136Z,981.30
2019-02-24T11:45:06.086Z,981.21
2019-02-24T11:46:06.038Z,981.20
2019-02-24T11:47:05.989Z,981.21
2019-02-24T11:48:05.938Z,981.26
2019-02-24T11:49:05.887Z,981.31
2019-02-24T11:50:06.004Z,981.32
2019-02-24T11:51:05.790Z,981.31
2019-02-24T11:52:05.739Z,981.28
2019-02-24T11:53:05.786Z,981.26
2019-02-24T11:54:05.639Z,981.26
2019-02-24T11:55:05.589Z,981.22
2019-02-24T11:56:05.539Z,981.25
2019-02-24T11:57:05.492Z,981.28
2019-02-24T11:58:05.440Z,981.26
2019-02-24T11:59:05.408Z,981.15
2019-02-24T12:00:05.346Z,981.20
2019-02-24T12:01:05.534Z,981.22
2019-02-24T12:02:05.246Z,981.18
2019-02-24T12:03:05.194Z,981.16
2019-02-24T12:04:05.246Z,981.20
2019-02-24T12:05:05.096Z,981.24
2019-02-24T12:06:05.047Z,981.28
2019-02-24T12:07:04.998Z,981.30
2019-02-24T12:08:04.965Z,981.26
2019-02-24T12:09:05.426Z,981.27
2019-02-24T12:10:05.018Z,981.31
2019-02-24T12:11:04.796Z,981.36
2019-02-24T12:12:04.748Z,981.30
2019-02-24T12:13:04.795Z,981.35
2019-02-24T12:14:04.651Z,981.36
2019-02-24T12:15:04.599Z,981.33
2019-02-24T12:16:04.549Z,981.34
2019-02-24T12:17:04.519Z,981.32
2019-02-24T12:18:04.453Z,981.28
2019-02-24T12:19:04.630Z,981.26
2019-02-24T12:20:04.353Z,981.23
2019-02-24T12:21:04.304Z,981.19
2019-02-24T12:22:04.347Z,981.22
2019-02-24T12:23:04.204Z,981.24
2019-02-24T12:24:04.163Z,981.26
2019-02-24T12:25:04.107Z,981.31
2019-02-24T12:26:04.240Z,981.32
2019-02-24T12:27:04.005Z,981.33
2019-02-24T12:28:03.956Z,981.37